Accueil
METAR-TAF:

METAR-TAF

Aéroports :

Aéroport international d'Abakan

Abakan, Russie

latitude: 53-45N, longitude: 091-24E, altitude: 245 m

Observation

Le bulletin a été fait il y a 34 minutes, à 11:30 UTC
Vent 8 kt de sud/sud-ouest
Température -12°C
Humidité 56%
Pression 1030 hPa
Visibilité 10 km ou plus
pas de nuages en-dessous de 1500 mètres et pas de cumulonimbus.

METAR: UNAA 231130Z 21004MPS CAVOK M12/M19 Q1030 R20/810145 NOSIG RMK QFE749

Heure: 19:04 (12:04 UTC)

Prévision

Le bulletin a été fait il y a 1 heure et 13 minutes, à 10:51 UTC
Prévision valable du 23 à 12 UTC au 24 à 12 UTC
Vent 6 kt de sud/sud-ouest avec des rafales jusqu'à 19 kt
Visibilité 10 km ou plus
Nuages fragmentés à une hauteur de 2000 ft

TAF: UNAA 231051Z 2312/2412 21003G10MPS 9999 BKN020

Observations et prévisions météorologiques de plus de 4000 aéroports (messages METAR et TAF).

Les stations disponibles sont représentées par des disques jaunes et rouges sur la carte.

Passer la souris dessus pour voir le nom de la station.

Cliquer dessus pour voir les observations et prévisions météorologiques.

Pour changer de carte: cliquez sur les boutons verts avec une croix noire pour zoomer, sur le bouton vert avec un tiret pour effectuer un zoom arrière, ou sur les flèches vertes pour les cartes adjacentes.


METAR-TAF: